createdAt,value
2018-12-05T00:01:22.597Z,101862.00
2018-12-05T00:03:51.677Z,101857.00
2018-12-05T00:06:21.719Z,101877.00
2018-12-05T00:08:51.641Z,101880.00
2018-12-05T00:11:20.933Z,101881.00
2018-12-05T00:13:50.077Z,101885.00
2018-12-05T00:16:19.208Z,101898.00
2018-12-05T00:18:48.211Z,101894.00
2018-12-05T00:21:17.422Z,101893.00
2018-12-05T00:23:46.505Z,101893.00
2018-12-05T00:26:15.688Z,101889.00
2018-12-05T00:28:44.777Z,101900.00
2018-12-05T00:31:13.924Z,101894.00
2018-12-05T00:33:42.998Z,101896.00
2018-12-05T00:36:12.022Z,101905.00
2018-12-05T00:38:41.065Z,101913.00
2018-12-05T00:41:10.141Z,101901.00
2018-12-05T00:43:39.251Z,101913.00
2018-12-05T00:46:08.269Z,101903.00
2018-12-05T00:48:37.249Z,101906.00
2018-12-05T00:51:06.342Z,101927.00
2018-12-05T00:53:35.349Z,101921.00
2018-12-05T00:56:04.341Z,101912.00
2018-12-05T00:58:33.462Z,101917.00
2018-12-05T01:01:02.582Z,101915.00
2018-12-05T01:03:31.699Z,101929.00
2018-12-05T01:06:00.809Z,101923.00
2018-12-05T01:08:29.839Z,101929.00
2018-12-05T01:10:59.023Z,101926.00
2018-12-05T01:13:28.028Z,101926.00
2018-12-05T01:15:57.045Z,101927.00
2018-12-05T01:18:26.154Z,101932.00
2018-12-05T01:20:55.268Z,101936.00
2018-12-05T01:23:24.391Z,101935.00
2018-12-05T01:25:53.743Z,101939.00
2018-12-05T01:28:22.866Z,101937.00
2018-12-05T01:30:51.932Z,101954.00
2018-12-05T01:33:21.059Z,101950.00
2018-12-05T01:35:50.049Z,101952.00
2018-12-05T01:38:19.114Z,101945.00
2018-12-05T01:40:48.235Z,101947.00
2018-12-05T01:43:17.301Z,101953.00
2018-12-05T01:45:46.300Z,101951.00
2018-12-05T01:48:15.397Z,101949.00
2018-12-05T01:50:44.497Z,101939.00
2018-12-05T01:53:13.545Z,101945.00
2018-12-05T01:55:42.696Z,101948.00
2018-12-05T01:58:11.772Z,101951.00
2018-12-05T02:00:40.871Z,101948.00
2018-12-05T02:03:09.908Z,101948.00
2018-12-05T02:05:38.931Z,101943.00
2018-12-05T02:08:08.045Z,101949.00
2018-12-05T02:10:37.178Z,101951.00
2018-12-05T02:13:06.334Z,101963.00
2018-12-05T02:15:35.498Z,101959.00
2018-12-05T02:18:04.589Z,101954.00
2018-12-05T02:20:33.850Z,101949.00
2018-12-05T02:23:03.057Z,101947.00
2018-12-05T02:25:32.131Z,101952.00
2018-12-05T02:28:01.389Z,101950.00
2018-12-05T02:30:30.534Z,101946.00
2018-12-05T02:32:59.641Z,101959.00
2018-12-05T02:35:28.812Z,101961.00
2018-12-05T02:37:57.843Z,101954.00
2018-12-05T02:40:26.901Z,101959.00
2018-12-05T02:42:55.949Z,101962.00
2018-12-05T02:45:25.097Z,101964.00
2018-12-05T02:47:54.142Z,101968.00
2018-12-05T02:50:23.232Z,101960.00
2018-12-05T02:52:52.351Z,101975.00
2018-12-05T02:55:21.464Z,101963.00
2018-12-05T02:57:50.570Z,101971.00
2018-12-05T03:00:19.631Z,101977.00
2018-12-05T03:02:48.774Z,101976.00
2018-12-05T03:05:17.872Z,101980.00
2018-12-05T03:07:47.660Z,101978.00
2018-12-05T03:10:16.776Z,101976.00
2018-12-05T03:12:45.874Z,101981.00
2018-12-05T03:15:14.934Z,101993.00
2018-12-05T03:17:43.982Z,101984.00
2018-12-05T03:20:13.122Z,102000.00
2018-12-05T03:22:42.242Z,101990.00
2018-12-05T03:25:11.291Z,101991.00
2018-12-05T03:27:40.367Z,102004.00
2018-12-05T03:30:09.654Z,102001.00
2018-12-05T03:32:38.709Z,101999.00
2018-12-05T03:35:07.901Z,102003.00
2018-12-05T03:37:36.978Z,101997.00
2018-12-05T03:40:06.752Z,102001.00
2018-12-05T03:42:35.853Z,101999.00
2018-12-05T03:45:05.015Z,102007.00
2018-12-05T03:47:33.978Z,102004.00
2018-12-05T03:50:03.565Z,102004.00
2018-12-05T03:52:32.798Z,102013.00
2018-12-05T03:55:01.914Z,102015.00
2018-12-05T03:57:30.921Z,102015.00
2018-12-05T04:00:00.082Z,102006.00
2018-12-05T04:02:29.166Z,102007.00
2018-12-05T04:04:58.292Z,102007.00
2018-12-05T04:07:27.314Z,101999.00
2018-12-05T04:09:56.445Z,102007.00
2018-12-05T04:12:25.506Z,102008.00
2018-12-05T04:14:54.586Z,102018.00
2018-12-05T04:17:23.713Z,102013.00
2018-12-05T04:19:52.818Z,102016.00
2018-12-05T04:22:21.847Z,102020.00
2018-12-05T04:24:50.906Z,102017.00
2018-12-05T04:27:20.002Z,102022.00
2018-12-05T04:29:49.740Z,102025.00
2018-12-05T04:32:18.737Z,102022.00
2018-12-05T04:34:47.903Z,102021.00
2018-12-05T04:37:16.911Z,102029.00
2018-12-05T04:39:45.987Z,102032.00
2018-12-05T04:42:15.026Z,102038.00
2018-12-05T04:44:44.002Z,102025.00
2018-12-05T04:47:13.077Z,102024.00
2018-12-05T04:49:42.232Z,102033.00
2018-12-05T04:52:12.143Z,102022.00
2018-12-05T04:54:41.204Z,102036.00
2018-12-05T04:57:10.245Z,102029.00
2018-12-05T04:59:39.320Z,102036.00
2018-12-05T05:02:08.690Z,102052.00
2018-12-05T05:04:37.714Z,102050.00
2018-12-05T05:07:07.161Z,102046.00
2018-12-05T05:09:36.284Z,102056.00
2018-12-05T05:12:05.258Z,102057.00
2018-12-05T05:14:34.303Z,102066.00
2018-12-05T05:17:03.409Z,102064.00
2018-12-05T05:19:32.482Z,102065.00
2018-12-05T05:22:01.621Z,102068.00
2018-12-05T05:24:31.190Z,102072.00
2018-12-05T05:27:00.297Z,102073.00
2018-12-05T05:29:29.961Z,102081.00
2018-12-05T05:31:58.981Z,102076.00
2018-12-05T05:34:28.106Z,102070.00
2018-12-05T05:36:57.095Z,102077.00
2018-12-05T05:39:26.147Z,102084.00
2018-12-05T05:41:55.294Z,102085.00
2018-12-05T05:44:24.310Z,102096.00
2018-12-05T05:47:56.445Z,102085.00
2018-12-05T05:50:25.534Z,102088.00
2018-12-05T05:52:54.618Z,102096.00
2018-12-05T05:55:23.660Z,102088.00
2018-12-05T05:57:52.709Z,102088.00
2018-12-05T06:00:21.901Z,102093.00
2018-12-05T06:02:51.369Z,102096.00
2018-12-05T06:05:20.430Z,102098.00
2018-12-05T06:07:49.451Z,102089.00
2018-12-05T06:10:18.485Z,102088.00
2018-12-05T06:12:47.560Z,102091.00
2018-12-05T06:15:16.560Z,102092.00
2018-12-05T06:17:45.667Z,102098.00
2018-12-05T06:20:14.748Z,102089.00
2018-12-05T06:22:43.845Z,102099.00
2018-12-05T06:25:12.991Z,102098.00
2018-12-05T06:27:43.158Z,102101.00
2018-12-05T06:30:12.241Z,102110.00
2018-12-05T06:32:42.176Z,102101.00
2018-12-05T06:35:11.280Z,102103.00
2018-12-05T06:37:40.253Z,102109.00
2018-12-05T06:40:09.384Z,102109.00
2018-12-05T06:42:38.495Z,102122.00
2018-12-05T06:45:07.539Z,102125.00
2018-12-05T06:47:36.693Z,102121.00
2018-12-05T06:50:06.894Z,102138.00
2018-12-05T06:52:35.986Z,102135.00
2018-12-05T06:55:05.878Z,102134.00
2018-12-05T06:57:34.973Z,102136.00
2018-12-05T07:00:04.334Z,102141.00
2018-12-05T07:02:33.297Z,102143.00
2018-12-05T07:05:02.346Z,102150.00
2018-12-05T07:07:31.434Z,102147.00
2018-12-05T07:10:00.538Z,102156.00
2018-12-05T07:12:29.673Z,102156.00
2018-12-05T07:14:58.762Z,102152.00
2018-12-05T07:17:27.800Z,102169.00
2018-12-05T07:19:56.874Z,102177.00
2018-12-05T07:22:25.905Z,102179.00
2018-12-05T07:24:55.174Z,102180.00
2018-12-05T07:27:24.163Z,102183.00
2018-12-05T07:29:53.226Z,102181.00
2018-12-05T07:32:22.245Z,102177.00
2018-12-05T07:34:51.241Z,102184.00
2018-12-05T07:37:20.237Z,102189.00
2018-12-05T07:39:49.327Z,102195.00
2018-12-05T07:42:18.342Z,102197.00
2018-12-05T07:44:47.425Z,102197.00
2018-12-05T07:47:16.450Z,102203.00
2018-12-05T07:49:45.566Z,102197.00
2018-12-05T07:52:14.602Z,102201.00
2018-12-05T07:54:43.627Z,102199.00
2018-12-05T07:57:12.714Z,102204.00
2018-12-05T07:59:41.794Z,102204.00
2018-12-05T08:02:10.774Z,102208.00
2018-12-05T08:04:39.787Z,102200.00
2018-12-05T08:07:08.882Z,102207.00
2018-12-05T08:09:38.001Z,102182.00
2018-12-05T08:12:07.250Z,102196.00
2018-12-05T08:14:36.262Z,102200.00
2018-12-05T08:17:05.402Z,102190.00
2018-12-05T08:19:34.485Z,102194.00
2018-12-05T08:22:03.640Z,102191.00
2018-12-05T08:24:32.662Z,102201.00
2018-12-05T08:27:01.624Z,102197.00
2018-12-05T08:29:30.682Z,102181.00
2018-12-05T08:31:59.704Z,102192.00
2018-12-05T08:34:28.719Z,102197.00
2018-12-05T08:36:57.811Z,102192.00
2018-12-05T08:39:26.921Z,102197.00
2018-12-05T08:41:56.024Z,102196.00
2018-12-05T08:44:25.110Z,102206.00
2018-12-05T08:46:54.165Z,102198.00
2018-12-05T08:49:23.231Z,102197.00
2018-12-05T08:51:52.317Z,102191.00
2018-12-05T08:54:21.505Z,102185.00
2018-12-05T08:56:50.818Z,102198.00
2018-12-05T08:59:19.797Z,102194.00
2018-12-05T09:01:48.885Z,102194.00
2018-12-05T09:04:17.949Z,102191.00
2018-12-05T09:06:46.987Z,102202.00
2018-12-05T09:09:16.099Z,102192.00
2018-12-05T09:11:45.142Z,102205.00
2018-12-05T09:14:14.208Z,102196.00
2018-12-05T09:16:43.333Z,102201.00
2018-12-05T09:19:12.454Z,102192.00
2018-12-05T09:21:41.510Z,102198.00
2018-12-05T09:24:10.518Z,102207.00
2018-12-05T09:26:39.590Z,102204.00
2018-12-05T09:29:08.738Z,102203.00
2018-12-05T09:31:37.767Z,102201.00
2018-12-05T09:34:06.751Z,102192.00
2018-12-05T09:36:35.822Z,102202.00
2018-12-05T09:39:08.499Z,102189.00
2018-12-05T09:41:37.542Z,102199.00
2018-12-05T09:44:06.518Z,102208.00
2018-12-05T09:46:35.541Z,102200.00
2018-12-05T09:49:04.641Z,102193.00
2018-12-05T09:51:33.754Z,102197.00
2018-12-05T09:54:02.865Z,102208.00
2018-12-05T09:56:31.858Z,102193.00
2018-12-05T09:59:00.968Z,102194.00
2018-12-05T10:01:30.036Z,102199.00
2018-12-05T10:03:59.206Z,102197.00
2018-12-05T10:06:28.290Z,102207.00
2018-12-05T10:08:57.435Z,102202.00
2018-12-05T10:11:26.482Z,102203.00
2018-12-05T10:13:55.614Z,102200.00
2018-12-05T10:16:24.710Z,102209.00
2018-12-05T10:18:53.775Z,102205.00
2018-12-05T10:21:22.854Z,102202.00
2018-12-05T10:23:51.950Z,102209.00
2018-12-05T10:26:21.055Z,102202.00
2018-12-05T10:28:50.145Z,102188.00
2018-12-05T10:31:19.244Z,102183.00
2018-12-05T10:33:48.825Z,102183.00
2018-12-05T10:36:17.841Z,102185.00
2018-12-05T10:38:46.819Z,102181.00
2018-12-05T10:41:16.079Z,102182.00
2018-12-05T10:43:45.137Z,102183.00
2018-12-05T10:46:14.235Z,102179.00
2018-12-05T10:48:43.347Z,102185.00
2018-12-05T10:51:12.652Z,102178.00
2018-12-05T10:53:41.690Z,102173.00
2018-12-05T10:56:10.806Z,102160.00
2018-12-05T10:58:39.864Z,102168.00
2018-12-05T11:01:14.302Z,102167.00
2018-12-05T11:03:43.397Z,102175.00
2018-12-05T11:07:16.660Z,102170.00
2018-12-05T11:09:50.998Z,102173.00
2018-12-05T11:12:25.445Z,102163.00
2018-12-05T11:14:59.817Z,102170.00
2018-12-05T11:17:34.233Z,102166.00
2018-12-05T11:20:08.991Z,102155.00
2018-12-05T11:22:43.591Z,102156.00
2018-12-05T11:25:16.731Z,102157.00
2018-12-05T11:27:45.829Z,102156.00
2018-12-05T11:30:14.869Z,102155.00
2018-12-05T11:32:43.902Z,102166.00
2018-12-05T11:35:13.026Z,102164.00
2018-12-05T11:37:42.093Z,102152.00
2018-12-05T11:40:11.279Z,102153.00
2018-12-05T11:42:40.226Z,102158.00
2018-12-05T11:45:09.361Z,102163.00
2018-12-05T11:47:38.425Z,102171.00
2018-12-05T11:50:07.973Z,102161.00
2018-12-05T11:52:37.069Z,102162.00
2018-12-05T11:55:06.689Z,102153.00
2018-12-05T11:57:35.754Z,102166.00
2018-12-05T12:00:05.977Z,102157.00
2018-12-05T12:02:35.028Z,102160.00
2018-12-05T12:05:04.690Z,102158.00
2018-12-05T12:07:33.783Z,102151.00
2018-12-05T12:10:02.908Z,102143.00
2018-12-05T12:12:37.354Z,102143.00
2018-12-05T12:15:07.590Z,102136.00
2018-12-05T12:17:36.722Z,102137.00
2018-12-05T12:20:06.154Z,102139.00
2018-12-05T12:22:35.217Z,102135.00
2018-12-05T12:25:04.579Z,102118.00
2018-12-05T12:27:33.652Z,102128.00
2018-12-05T12:30:02.670Z,102130.00
2018-12-05T12:32:31.660Z,102126.00
2018-12-05T12:35:00.702Z,102122.00
2018-12-05T12:37:29.791Z,102125.00
2018-12-05T12:39:58.790Z,102130.00
2018-12-05T12:42:27.933Z,102127.00
2018-12-05T12:44:56.994Z,102115.00
2018-12-05T12:47:26.030Z,102117.00
2018-12-05T12:49:55.042Z,102115.00
2018-12-05T12:52:24.110Z,102119.00
2018-12-05T12:54:53.278Z,102110.00
2018-12-05T12:57:22.319Z,102103.00
2018-12-05T12:59:51.358Z,102112.00
2018-12-05T13:02:20.414Z,102109.00
2018-12-05T13:04:49.606Z,102127.00
2018-12-05T13:07:18.730Z,102114.00
2018-12-05T13:09:47.781Z,102110.00
2018-12-05T13:12:22.170Z,102117.00
2018-12-05T13:14:51.325Z,102109.00
2018-12-05T13:17:20.415Z,102107.00
2018-12-05T13:19:49.477Z,102102.00
2018-12-05T13:22:18.777Z,102096.00
2018-12-05T13:24:47.941Z,102101.00
2018-12-05T13:27:17.083Z,102102.00
2018-12-05T13:29:45.989Z,102100.00
2018-12-05T13:32:14.953Z,102099.00
2018-12-05T13:34:43.979Z,102092.00
2018-12-05T13:37:12.962Z,102099.00
2018-12-05T13:39:41.938Z,102091.00
2018-12-05T13:42:11.000Z,102090.00
2018-12-05T13:44:40.015Z,102100.00
2018-12-05T13:47:09.272Z,102090.00
2018-12-05T13:49:38.387Z,102086.00
2018-12-05T13:52:07.546Z,102088.00
2018-12-05T13:54:36.743Z,102085.00
2018-12-05T13:57:05.985Z,102076.00
2018-12-05T13:59:34.985Z,102073.00
2018-12-05T14:02:04.025Z,102066.00
2018-12-05T14:04:33.067Z,102058.00
2018-12-05T14:07:02.005Z,102068.00
2018-12-05T14:09:30.997Z,102064.00
2018-12-05T14:11:59.989Z,102064.00
2018-12-05T14:14:29.010Z,102067.00
2018-12-05T14:16:59.003Z,102069.00
2018-12-05T14:19:28.070Z,102061.00
2018-12-05T14:21:57.043Z,102066.00
2018-12-05T14:24:26.068Z,102070.00
2018-12-05T14:26:55.146Z,102068.00
2018-12-05T14:29:24.130Z,102067.00
2018-12-05T14:31:53.144Z,102060.00
2018-12-05T14:34:22.161Z,102057.00
2018-12-05T14:36:51.241Z,102050.00
2018-12-05T14:39:20.325Z,102050.00
2018-12-05T14:41:49.348Z,102050.00
2018-12-05T14:44:18.414Z,102046.00
2018-12-05T14:46:47.417Z,102047.00
2018-12-05T14:49:16.514Z,102048.00
2018-12-05T14:51:45.572Z,102053.00
2018-12-05T14:54:14.519Z,102046.00
2018-12-05T14:56:43.583Z,102048.00
2018-12-05T14:59:12.783Z,102044.00
2018-12-05T15:01:41.837Z,102054.00
2018-12-05T15:04:10.831Z,102048.00
2018-12-05T15:06:39.839Z,102054.00
2018-12-05T15:09:09.068Z,102051.00
2018-12-05T15:11:38.129Z,102052.00
2018-12-05T15:14:07.102Z,102044.00
2018-12-05T15:16:36.147Z,102040.00
2018-12-05T15:19:05.132Z,102039.00
2018-12-05T15:21:34.173Z,102041.00
2018-12-05T15:24:03.154Z,102041.00
2018-12-05T15:26:32.252Z,102035.00
2018-12-05T15:29:01.247Z,102032.00
2018-12-05T15:31:30.337Z,102023.00
2018-12-05T15:33:59.385Z,102014.00
2018-12-05T15:36:28.499Z,102009.00
2018-12-05T15:38:57.608Z,102001.00
2018-12-05T15:41:26.578Z,102010.00
2018-12-05T15:43:55.624Z,102003.00
2018-12-05T15:46:24.693Z,102005.00
2018-12-05T15:48:53.725Z,102013.00
2018-12-05T15:51:22.726Z,102003.00
2018-12-05T15:53:51.888Z,102005.00
2018-12-05T15:56:20.963Z,101999.00
2018-12-05T15:58:49.995Z,102000.00
2018-12-05T16:01:18.968Z,101982.00
2018-12-05T16:03:48.849Z,101991.00
2018-12-05T16:06:17.862Z,101988.00
2018-12-05T16:08:46.851Z,101983.00
2018-12-05T16:11:15.904Z,101979.00
2018-12-05T16:13:45.285Z,101971.00
2018-12-05T16:16:14.294Z,101977.00
2018-12-05T16:18:44.351Z,101970.00
2018-12-05T16:21:13.340Z,101967.00
2018-12-05T16:23:42.449Z,101959.00
2018-12-05T16:26:11.522Z,101966.00
2018-12-05T16:28:40.598Z,101968.00
2018-12-05T16:31:09.670Z,101958.00
2018-12-05T16:33:38.669Z,101963.00
2018-12-05T16:36:11.334Z,101959.00
2018-12-05T16:38:38.887Z,101952.00
2018-12-05T16:41:07.878Z,101966.00
2018-12-05T16:43:36.909Z,101960.00
2018-12-05T16:46:05.974Z,101963.00
2018-12-05T16:48:34.951Z,101963.00
2018-12-05T16:51:03.999Z,101960.00
2018-12-05T16:53:33.059Z,101963.00
2018-12-05T16:56:02.153Z,101956.00
2018-12-05T16:58:31.209Z,101952.00
2018-12-05T17:01:00.265Z,101939.00
2018-12-05T17:03:29.440Z,101936.00
2018-12-05T17:05:58.545Z,101952.00
2018-12-05T17:08:27.596Z,101947.00
2018-12-05T17:10:57.374Z,101947.00
2018-12-05T17:13:26.456Z,101932.00
2018-12-05T17:15:55.514Z,101941.00
2018-12-05T17:18:24.595Z,101936.00
2018-12-05T17:20:53.638Z,101934.00
2018-12-05T17:23:22.734Z,101945.00
2018-12-05T17:25:51.815Z,101938.00
2018-12-05T17:28:20.941Z,101935.00
2018-12-05T17:30:49.925Z,101936.00
2018-12-05T17:33:18.985Z,101936.00
2018-12-05T17:35:48.049Z,101944.00
2018-12-05T17:38:16.989Z,101944.00
2018-12-05T17:40:46.083Z,101934.00
2018-12-05T17:43:15.105Z,101925.00
2018-12-05T17:45:44.193Z,101925.00
2018-12-05T17:48:13.385Z,101920.00
2018-12-05T17:50:42.445Z,101931.00
2018-12-05T17:53:11.498Z,101935.00
2018-12-05T17:55:40.591Z,101930.00
2018-12-05T17:58:09.745Z,101916.00
2018-12-05T18:00:38.833Z,101910.00
2018-12-05T18:03:07.944Z,101905.00
2018-12-05T18:05:36.977Z,101903.00
2018-12-05T18:08:06.030Z,101898.00
2018-12-05T18:10:35.109Z,101888.00
2018-12-05T18:13:04.342Z,101875.00
2018-12-05T18:15:33.384Z,101882.00
2018-12-05T18:18:02.527Z,101870.00
2018-12-05T18:20:31.617Z,101876.00
2018-12-05T18:23:00.641Z,101881.00
2018-12-05T18:25:29.683Z,101870.00
2018-12-05T18:27:58.802Z,101870.00
2018-12-05T18:30:27.845Z,101876.00
2018-12-05T18:32:57.005Z,101874.00
2018-12-05T18:35:26.165Z,101873.00
2018-12-05T18:37:55.210Z,101876.00
2018-12-05T18:40:24.214Z,101879.00
2018-12-05T18:42:53.189Z,101864.00
2018-12-05T18:45:22.229Z,101865.00
2018-12-05T18:47:51.307Z,101870.00
2018-12-05T18:50:20.399Z,101870.00
2018-12-05T18:52:49.506Z,101864.00
2018-12-05T18:55:18.516Z,101850.00
2018-12-05T18:58:50.538Z,101839.00
2018-12-05T19:01:19.568Z,101838.00
2018-12-05T19:03:48.655Z,101837.00
2018-12-05T19:06:17.653Z,101832.00
2018-12-05T19:08:46.648Z,101831.00
2018-12-05T19:11:15.843Z,101828.00
2018-12-05T19:13:50.233Z,101832.00
2018-12-05T19:16:19.240Z,101839.00
2018-12-05T19:18:48.329Z,101821.00
2018-12-05T19:21:17.462Z,101823.00
2018-12-05T19:23:47.261Z,101817.00
2018-12-05T19:26:16.578Z,101812.00
2018-12-05T19:28:45.773Z,101811.00
2018-12-05T19:31:19.402Z,101811.00
2018-12-05T19:33:45.853Z,101811.00
2018-12-05T19:36:14.825Z,101794.00
2018-12-05T19:38:43.879Z,101804.00
2018-12-05T19:41:12.993Z,101807.00
2018-12-05T19:43:42.027Z,101808.00
2018-12-05T19:46:11.098Z,101798.00
2018-12-05T19:48:40.970Z,101793.00
2018-12-05T19:51:10.969Z,101791.00
2018-12-05T19:53:40.202Z,101794.00
2018-12-05T19:56:09.412Z,101806.00
2018-12-05T19:58:38.462Z,101803.00
2018-12-05T20:01:07.434Z,101806.00
2018-12-05T20:03:36.498Z,101804.00
2018-12-05T20:06:05.506Z,101796.00
2018-12-05T20:08:34.618Z,101791.00
2018-12-05T20:11:03.745Z,101787.00
2018-12-05T20:13:34.625Z,101790.00
2018-12-05T20:16:03.675Z,101787.00
2018-12-05T20:25:28.136Z,101789.00
2018-12-05T20:27:57.140Z,101773.00
2018-12-05T20:30:26.181Z,101780.00
2018-12-05T20:32:56.018Z,101781.00
2018-12-05T20:35:25.092Z,101772.00
2018-12-05T20:37:54.225Z,101777.00
2018-12-05T20:40:23.342Z,101772.00
2018-12-05T20:42:52.437Z,101778.00
2018-12-05T20:45:21.469Z,101769.00
2018-12-05T20:47:50.595Z,101782.00
2018-12-05T20:50:19.924Z,101774.00
2018-12-05T20:52:49.391Z,101764.00
2018-12-05T20:55:18.346Z,101758.00
2018-12-05T20:57:47.458Z,101752.00
2018-12-05T21:00:16.568Z,101743.00
2018-12-05T21:02:45.613Z,101744.00
2018-12-05T21:05:14.642Z,101743.00
2018-12-05T21:07:43.778Z,101736.00
2018-12-05T21:10:12.884Z,101737.00
2018-12-05T21:12:41.881Z,101740.00
2018-12-05T21:15:11.039Z,101723.00
2018-12-05T21:17:40.102Z,101732.00
2018-12-05T21:20:09.238Z,101727.00
2018-12-05T21:22:38.365Z,101723.00
2018-12-05T21:25:07.446Z,101714.00
2018-12-05T21:27:36.447Z,101714.00
2018-12-05T21:30:06.898Z,101701.00
2018-12-05T21:32:36.103Z,101712.00
2018-12-05T21:35:05.266Z,101695.00
2018-12-05T21:37:34.307Z,101698.00
2018-12-05T21:40:03.726Z,101682.00
2018-12-05T21:42:32.837Z,101683.00
2018-12-05T21:45:02.085Z,101671.00
2018-12-05T21:47:31.305Z,101660.00
2018-12-05T21:50:00.374Z,101658.00
2018-12-05T21:52:30.889Z,101657.00
2018-12-05T21:54:59.985Z,101652.00
2018-12-05T21:57:29.135Z,101666.00
2018-12-05T21:59:58.113Z,101663.00
2018-12-05T22:02:27.201Z,101668.00
2018-12-05T22:04:56.297Z,101667.00
2018-12-05T22:07:25.714Z,101671.00
2018-12-05T22:09:54.761Z,101662.00
2018-12-05T22:12:23.904Z,101666.00
2018-12-05T22:14:52.967Z,101654.00
2018-12-05T22:17:21.973Z,101649.00
2018-12-05T22:19:51.171Z,101657.00
2018-12-05T22:22:21.354Z,101644.00
2018-12-05T22:24:50.643Z,101643.00
2018-12-05T22:27:19.669Z,101649.00
2018-12-05T22:29:48.690Z,101652.00
2018-12-05T22:32:17.721Z,101644.00
2018-12-05T22:34:46.727Z,101640.00
2018-12-05T22:37:15.866Z,101643.00
2018-12-05T22:39:45.063Z,101642.00
2018-12-05T22:42:14.172Z,101632.00
2018-12-05T22:44:43.173Z,101631.00
2018-12-05T22:47:12.192Z,101627.00
2018-12-05T22:49:41.160Z,101607.00
2018-12-05T22:52:10.187Z,101602.00
2018-12-05T22:54:39.235Z,101583.00
2018-12-05T22:57:14.188Z,101601.00
2018-12-05T22:59:43.262Z,101589.00
2018-12-05T23:02:12.341Z,101586.00
2018-12-05T23:04:41.366Z,101572.00
2018-12-05T23:07:10.387Z,101574.00
2018-12-05T23:09:40.317Z,101565.00
2018-12-05T23:12:09.390Z,101562.00
2018-12-05T23:14:38.494Z,101560.00
2018-12-05T23:17:07.589Z,101557.00
2018-12-05T23:19:36.657Z,101551.00
2018-12-05T23:22:05.650Z,101544.00
2018-12-05T23:24:34.777Z,101541.00
2018-12-05T23:27:03.834Z,101537.00
2018-12-05T23:29:32.989Z,101538.00
2018-12-05T23:32:02.027Z,101538.00
2018-12-05T23:34:31.020Z,101525.00
2018-12-05T23:37:00.009Z,101517.00
2018-12-05T23:39:29.024Z,101509.00
2018-12-05T23:41:58.085Z,101512.00
2018-12-05T23:44:27.138Z,101499.00
2018-12-05T23:46:56.182Z,101500.00
2018-12-05T23:56:54.833Z,101496.00
2018-12-05T23:59:23.830Z,101484.00
